TimeMDT,TemperatureF,Dew PointF,Humidity,Sea Level PressureIn,VisibilityMPH,Wind Direction,Wind SpeedMPH,Gust SpeedMPH,PrecipitationIn,Events,Conditions,WindDirDegrees,DateUTC
5:00 AM,23.0,23.0,100,29.94,6.0,NW,2.3,-,N/A,,Clear,310,2013-09-27 11:00:00
6:00 AM,27,26,97,29.94,7,North,2.3,,,,,350,2013-09-27 12:00:00
6:00 AM,26.6,26.6,100,29.94,8.0,Variable,2.3,-,N/A,,Clear,0,2013-09-27 12:00:00
7:00 AM,21.2,19.4,93,29.94,12.0,NW,6.9,-,N/A,Fog,Shallow Fog,310,2013-09-27 13:00:00
8:00 AM,21.2,19.4,93,29.94,30.0,WNW,5.8,-,N/A,Fog,Shallow Fog,300,2013-09-27 14:00:00
9:00 AM,30.2,30.2,100,29.90,30.0,NNW,4.6,-,N/A,,Mostly Cloudy,340,2013-09-27 15:00:00
10:00 AM,41.0,33.8,76,29.86,30.0,NNW,2.3,-,N/A,,Mostly Cloudy,330,2013-09-27 16:00:00
11:00 AM,50.0,26.6,40,29.82,30.0,West,17.3,26.5,N/A,,Mostly Cloudy,280,2013-09-27 17:00:00
12:00 PM,51,24,22,29.82,28,West,18.4,,,,Scattered Clouds,280,2013-09-27 18:00:00
12:00 PM,51.8,23.0,33,29.82,30.0,West,18.4,25.3,N/A,,Mostly Cloudy,280,2013-09-27 18:00:00
1:00 PM,50.0,23.0,35,29.82,30.0,West,19.6,-,N/A,,Mostly Cloudy,270,2013-09-27 19:00:00
2:00 PM,50.0,24.8,37,29.81,30.0,West,15.0,-,N/A,,Mostly Cloudy,270,2013-09-27 20:00:00
3:00 PM,53.6,24.8,33,29.79,30.0,WNW,19.6,28.8,N/A,,Mostly Cloudy,290,2013-09-27 21:00:00
4:00 PM,51.8,26.6,38,29.79,30.0,West,18.4,24.2,N/A,,Mostly Cloudy,270,2013-09-27 22:00:00
5:00 PM,50.0,26.6,40,29.81,30.0,West,18.4,-,N/A,,Mostly Cloudy,270,2013-09-27 23:00:00
6:00 PM,49,27,30,29.81,28,West,17.3,,,,,270,2013-09-28 00:00:00
6:00 PM,50.0,26.6,40,29.80,30.0,West,17.3,23.0,N/A,,Mostly Cloudy,270,2013-09-28 00:00:00
7:00 PM,46.4,28.4,50,29.83,25.0,West,9.2,-,N/A,,Mostly Cloudy,280,2013-09-28 01:00:00
8:00 PM,37.4,28.4,70,29.86,20.0,West,8.1,-,N/A,,Mostly Cloudy,270,2013-09-28 02:00:00
8:04 PM,35.6,28.4,75,29.86,20.0,West,6.9,-,N/A,,Mostly Cloudy,280,2013-09-28 02:04:00
9:00 PM,35.6,26.6,70,29.84,15.0,West,10.4,-,N/A,,Partly Cloudy,270,2013-09-28 03:00:00
10:00 PM,33.8,24.8,70,29.83,15.0,WNW,3.5,-,N/A,,Clear,300,2013-09-28 04:00:00